Terminal Aerodrome Forecast
Issued by NWS San Angelo, TX

Home | Current Version | Previous Version | Text Only | Print | Product List | Glossary On
Versions: 1 2 3 4 5 6 7 8 9 10 11 12 13
000
FTUS44 KSJT 231100
TAFABI
TAF
KABI 231121Z 2312/2412 14007KT P6SM BKN250
     FM231700 16009KT P6SM FEW060 BKN250
     FM240000 14009KT P6SM BKN250=

USA.gov is the U.S. government's official web portal to all federal, state and local government web resources and services.